Laguna Heights, Texas
Current Conditions -  °F | °C
As of 11:53 PM on Wednesday 22 Oct 2014 (Local Time) from KPIL Reporting Station
Clear Clear  
Wind Chill: 76°   Ceiling: Unl
Heat Index: 76°   Visibility: 9mi
Dew Point: 66°   Wind: 8mph
Humidity: 71%   Direction: 60°ENE
Pressure: 30.03"   Gusts: NA
Location:  26.0776°N, 97.3389°W
Report Text: KPIL 230453Z AUTO 06007KT 9SM CLR 24/19 A3003 RMK AO2 SLP168 T02440189
Loading
Personal Weather Stations






























Interactive Weather Map
Tropical Storm Tracking
New forecast layout! Learn more

10-Day Weather Forecast

Advertisements
Track Severe Weather on mobile